sensor_id;sensor_type;location;lat;lon;timestamp;temperature;humidity
43673;DHT22;41723;49.326;8.430;2024-01-16T00:00:32;0.60;99.90
43673;DHT22;41723;49.326;8.430;2024-01-16T00:02:57;0.50;99.90
43673;DHT22;41723;49.326;8.430;2024-01-16T00:05:23;0.50;99.90
43673;DHT22;41723;49.326;8.430;2024-01-16T00:07:49;0.50;99.90
43673;DHT22;41723;49.326;8.430;2024-01-16T00:10:14;0.40;99.90
43673;DHT22;41723;49.326;8.430;2024-01-16T00:12:41;0.50;99.90
43673;DHT22;41723;49.326;8.430;2024-01-16T00:15:06;0.50;99.90
43673;DHT22;41723;49.326;8.430;2024-01-16T00:17:32;0.50;99.90
43673;DHT22;41723;49.326;8.430;2024-01-16T00:19:58;0.40;99.90
43673;DHT22;41723;49.326;8.430;2024-01-16T00:22:29;0.50;99.90
43673;DHT22;41723;49.326;8.430;2024-01-16T00:24:55;0.50;99.90
43673;DHT22;41723;49.326;8.430;2024-01-16T00:27:21;0.50;99.90
43673;DHT22;41723;49.326;8.430;2024-01-16T00:29:46;0.50;99.90
43673;DHT22;41723;49.326;8.430;2024-01-16T00:32:12;0.50;99.90
43673;DHT22;41723;49.326;8.430;2024-01-16T00:34:41;0.50;99.90
43673;DHT22;41723;49.326;8.430;2024-01-16T00:37:07;0.50;99.90
43673;DHT22;41723;49.326;8.430;2024-01-16T00:39:32;0.50;99.90
43673;DHT22;41723;49.326;8.430;2024-01-16T00:41:58;0.60;99.90
43673;DHT22;41723;49.326;8.430;2024-01-16T00:44:24;0.50;99.90
43673;DHT22;41723;49.326;8.430;2024-01-16T00:46:50;0.50;99.90
43673;DHT22;41723;49.326;8.430;2024-01-16T00:49:15;0.50;99.90
43673;DHT22;41723;49.326;8.430;2024-01-16T00:51:41;0.50;99.90
43673;DHT22;41723;49.326;8.430;2024-01-16T00:54:06;0.50;99.90
43673;DHT22;41723;49.326;8.430;2024-01-16T00:56:33;0.50;99.90
43673;DHT22;41723;49.326;8.430;2024-01-16T00:58:59;0.50;99.90
43673;DHT22;41723;49.326;8.430;2024-01-16T01:01:25;0.60;99.90
43673;DHT22;41723;49.326;8.430;2024-01-16T01:03:51;0.60;99.90
43673;DHT22;41723;49.326;8.430;2024-01-16T01:06:16;0.60;99.90
43673;DHT22;41723;49.326;8.430;2024-01-16T01:08:42;0.70;99.90
43673;DHT22;41723;49.326;8.430;2024-01-16T01:11:08;0.60;99.90
43673;DHT22;41723;49.326;8.430;2024-01-16T01:13:33;0.50;99.90
43673;DHT22;41723;49.326;8.430;2024-01-16T01:15:59;0.60;99.90
43673;DHT22;41723;49.326;8.430;2024-01-16T01:18:25;0.50;99.90
43673;DHT22;41723;49.326;8.430;2024-01-16T01:20:51;0.50;99.90
43673;DHT22;41723;49.326;8.430;2024-01-16T01:23:17;0.50;99.90
43673;DHT22;41723;49.326;8.430;2024-01-16T01:25:42;0.40;99.90
43673;DHT22;41723;49.326;8.430;2024-01-16T01:28:08;0.30;99.90
43673;DHT22;41723;49.326;8.430;2024-01-16T01:30:34;0.30;99.90
43673;DHT22;41723;49.326;8.430;2024-01-16T01:32:59;0.30;99.90
43673;DHT22;41723;49.326;8.430;2024-01-16T01:35:25;0.30;99.90
43673;DHT22;41723;49.326;8.430;2024-01-16T01:37:50;0.30;99.90
43673;DHT22;41723;49.326;8.430;2024-01-16T01:40:16;0.30;99.90
43673;DHT22;41723;49.326;8.430;2024-01-16T01:42:42;0.40;99.90
43673;DHT22;41723;49.326;8.430;2024-01-16T01:45:08;0.40;99.90
43673;DHT22;41723;49.326;8.430;2024-01-16T01:47:34;0.30;99.90
43673;DHT22;41723;49.326;8.430;2024-01-16T01:50:01;0.40;99.90
43673;DHT22;41723;49.326;8.430;2024-01-16T01:52:27;0.40;99.90
43673;DHT22;41723;49.326;8.430;2024-01-16T01:54:52;0.50;99.90
43673;DHT22;41723;49.326;8.430;2024-01-16T01:57:18;0.40;99.90
43673;DHT22;41723;49.326;8.430;2024-01-16T01:59:43;0.30;99.90
43673;DHT22;41723;49.326;8.430;2024-01-16T02:02:09;0.30;99.90
43673;DHT22;41723;49.326;8.430;2024-01-16T02:04:36;0.30;99.90
43673;DHT22;41723;49.326;8.430;2024-01-16T02:07:01;0.30;99.90
43673;DHT22;41723;49.326;8.430;2024-01-16T02:09:28;0.40;99.90
43673;DHT22;41723;49.326;8.430;2024-01-16T02:11:54;0.40;99.90
43673;DHT22;41723;49.326;8.430;2024-01-16T02:14:19;0.40;99.90
43673;DHT22;41723;49.326;8.430;2024-01-16T02:16:45;0.40;99.90
43673;DHT22;41723;49.326;8.430;2024-01-16T02:19:10;0.40;99.90
43673;DHT22;41723;49.326;8.430;2024-01-16T02:21:36;0.50;99.90
43673;DHT22;41723;49.326;8.430;2024-01-16T02:24:03;0.40;99.90
43673;DHT22;41723;49.326;8.430;2024-01-16T02:26:30;0.60;99.90
43673;DHT22;41723;49.326;8.430;2024-01-16T02:28:56;0.60;99.90
43673;DHT22;41723;49.326;8.430;2024-01-16T02:31:22;0.70;99.90
43673;DHT22;41723;49.326;8.430;2024-01-16T02:37:25;0.80;99.90
43673;DHT22;41723;49.326;8.430;2024-01-16T02:39:51;0.90;99.90
43673;DHT22;41723;49.326;8.430;2024-01-16T02:42:16;1.10;99.90
43673;DHT22;41723;49.326;8.430;2024-01-16T02:44:42;1.00;99.90
43673;DHT22;41723;49.326;8.430;2024-01-16T02:47:07;1.00;99.90
43673;DHT22;41723;49.326;8.430;2024-01-16T02:49:33;0.90;99.90
43673;DHT22;41723;49.326;8.430;2024-01-16T02:51:59;0.90;99.90
43673;DHT22;41723;49.326;8.430;2024-01-16T02:54:24;0.90;99.90
43673;DHT22;41723;49.326;8.430;2024-01-16T02:56:50;1.00;99.90
43673;DHT22;41723;49.326;8.430;2024-01-16T02:59:15;1.00;99.90
43673;DHT22;41723;49.326;8.430;2024-01-16T03:01:42;1.00;99.90
43673;DHT22;41723;49.326;8.430;2024-01-16T03:04:08;0.90;99.90
43673;DHT22;41723;49.326;8.430;2024-01-16T03:06:34;0.80;99.90
43673;DHT22;41723;49.326;8.430;2024-01-16T03:08:59;0.90;99.90
43673;DHT22;41723;49.326;8.430;2024-01-16T03:11:25;1.00;99.90
43673;DHT22;41723;49.326;8.430;2024-01-16T03:13:51;1.10;99.90
43673;DHT22;41723;49.326;8.430;2024-01-16T03:16:18;1.00;99.90
43673;DHT22;41723;49.326;8.430;2024-01-16T03:18:44;1.00;99.90
43673;DHT22;41723;49.326;8.430;2024-01-16T03:21:10;0.90;99.90
43673;DHT22;41723;49.326;8.430;2024-01-16T03:23:36;0.80;99.90
43673;DHT22;41723;49.326;8.430;2024-01-16T03:26:01;0.80;99.90
43673;DHT22;41723;49.326;8.430;2024-01-16T03:28:29;0.70;99.90
43673;DHT22;41723;49.326;8.430;2024-01-16T03:30:54;0.70;99.90
43673;DHT22;41723;49.326;8.430;2024-01-16T03:33:20;0.60;99.90
43673;DHT22;41723;49.326;8.430;2024-01-16T03:35:45;0.60;99.90
43673;DHT22;41723;49.326;8.430;2024-01-16T03:38:11;0.60;99.90
43673;DHT22;41723;49.326;8.430;2024-01-16T03:40:36;0.60;99.90
43673;DHT22;41723;49.326;8.430;2024-01-16T03:43:02;0.60;99.90
43673;DHT22;41723;49.326;8.430;2024-01-16T03:45:30;0.60;99.90
43673;DHT22;41723;49.326;8.430;2024-01-16T03:47:56;0.50;99.90
43673;DHT22;41723;49.326;8.430;2024-01-16T03:50:21;0.50;99.90
43673;DHT22;41723;49.326;8.430;2024-01-16T03:52:47;0.60;99.90
43673;DHT22;41723;49.326;8.430;2024-01-16T03:55:13;0.60;99.90
43673;DHT22;41723;49.326;8.430;2024-01-16T03:57:38;0.60;99.90
43673;DHT22;41723;49.326;8.430;2024-01-16T04:00:04;0.50;99.90
43673;DHT22;41723;49.326;8.430;2024-01-16T04:02:30;0.50;99.90
43673;DHT22;41723;49.326;8.430;2024-01-16T04:04:56;0.50;99.90
43673;DHT22;41723;49.326;8.430;2024-01-16T04:07:25;0.40;99.90
43673;DHT22;41723;49.326;8.430;2024-01-16T04:09:52;0.30;99.90
43673;DHT22;41723;49.326;8.430;2024-01-16T04:12:19;0.30;99.90
43673;DHT22;41723;49.326;8.430;2024-01-16T04:14:44;0.30;99.90
43673;DHT22;41723;49.326;8.430;2024-01-16T04:17:10;0.20;99.90
43673;DHT22;41723;49.326;8.430;2024-01-16T04:19:35;0.20;99.90
43673;DHT22;41723;49.326;8.430;2024-01-16T04:22:01;0.20;99.90
43673;DHT22;41723;49.326;8.430;2024-01-16T04:24:27;0.20;99.90
43673;DHT22;41723;49.326;8.430;2024-01-16T04:26:53;0.20;99.90
43673;DHT22;41723;49.326;8.430;2024-01-16T04:29:18;0.10;99.90
43673;DHT22;41723;49.326;8.430;2024-01-16T04:31:44;0.20;99.90
43673;DHT22;41723;49.326;8.430;2024-01-16T04:34:09;0.10;99.90
43673;DHT22;41723;49.326;8.430;2024-01-16T04:36:35;0.10;99.90
43673;DHT22;41723;49.326;8.430;2024-01-16T04:39:00;0.10;99.90
43673;DHT22;41723;49.326;8.430;2024-01-16T04:41:26;0.10;99.90
43673;DHT22;41723;49.326;8.430;2024-01-16T04:43:52;0.30;99.90
43673;DHT22;41723;49.326;8.430;2024-01-16T04:46:17;0.20;99.90
43673;DHT22;41723;49.326;8.430;2024-01-16T04:48:43;0.30;99.90
43673;DHT22;41723;49.326;8.430;2024-01-16T04:51:08;0.30;99.90
43673;DHT22;41723;49.326;8.430;2024-01-16T04:53:34;0.20;99.90
43673;DHT22;41723;49.326;8.430;2024-01-16T04:56:00;0.20;99.90
43673;DHT22;41723;49.326;8.430;2024-01-16T04:58:25;0.20;99.90
43673;DHT22;41723;49.326;8.430;2024-01-16T05:00:51;0.30;99.90
43673;DHT22;41723;49.326;8.430;2024-01-16T05:03:16;0.30;99.90
43673;DHT22;41723;49.326;8.430;2024-01-16T05:05:42;0.30;99.90
43673;DHT22;41723;49.326;8.430;2024-01-16T05:08:08;0.30;99.90
43673;DHT22;41723;49.326;8.430;2024-01-16T05:10:34;0.40;99.90
43673;DHT22;41723;49.326;8.430;2024-01-16T05:13:00;0.40;99.90
43673;DHT22;41723;49.326;8.430;2024-01-16T05:15:25;0.40;99.90
43673;DHT22;41723;49.326;8.430;2024-01-16T05:17:51;0.30;99.90
43673;DHT22;41723;49.326;8.430;2024-01-16T05:20:17;0.20;99.90
43673;DHT22;41723;49.326;8.430;2024-01-16T05:22:42;0.10;99.90
43673;DHT22;41723;49.326;8.430;2024-01-16T05:25:09;0.20;99.90
43673;DHT22;41723;49.326;8.430;2024-01-16T05:27:35;0.10;99.90
43673;DHT22;41723;49.326;8.430;2024-01-16T05:30:01;0.10;99.90
43673;DHT22;41723;49.326;8.430;2024-01-16T05:32:26;0.00;99.90
43673;DHT22;41723;49.326;8.430;2024-01-16T05:34:52;0.00;99.90
43673;DHT22;41723;49.326;8.430;2024-01-16T05:37:18;0.00;99.90
43673;DHT22;41723;49.326;8.430;2024-01-16T05:39:44;0.00;99.90
43673;DHT22;41723;49.326;8.430;2024-01-16T05:42:10;0.00;99.90
43673;DHT22;41723;49.326;8.430;2024-01-16T05:44:37;-0.10;99.90
43673;DHT22;41723;49.326;8.430;2024-01-16T05:47:03;-0.10;99.90
43673;DHT22;41723;49.326;8.430;2024-01-16T05:49:29;-0.10;99.90
43673;DHT22;41723;49.326;8.430;2024-01-16T05:51:54;-0.10;99.90
43673;DHT22;41723;49.326;8.430;2024-01-16T05:54:20;-0.10;99.90
43673;DHT22;41723;49.326;8.430;2024-01-16T05:56:45;-0.20;99.90
43673;DHT22;41723;49.326;8.430;2024-01-16T05:59:11;-0.20;99.90
43673;DHT22;41723;49.326;8.430;2024-01-16T06:01:36;-0.30;99.90
43673;DHT22;41723;49.326;8.430;2024-01-16T06:04:03;-0.20;99.90
43673;DHT22;41723;49.326;8.430;2024-01-16T06:06:29;-0.30;99.90
43673;DHT22;41723;49.326;8.430;2024-01-16T06:08:54;-0.30;99.90
43673;DHT22;41723;49.326;8.430;2024-01-16T06:11:29;-0.30;99.90
43673;DHT22;41723;49.326;8.430;2024-01-16T06:13:54;-0.40;99.90
43673;DHT22;41723;49.326;8.430;2024-01-16T06:16:20;-0.40;99.90
43673;DHT22;41723;49.326;8.430;2024-01-16T06:18:45;-0.40;99.90
43673;DHT22;41723;49.326;8.430;2024-01-16T06:21:11;-0.40;99.90
43673;DHT22;41723;49.326;8.430;2024-01-16T06:23:37;-0.40;99.90
43673;DHT22;41723;49.326;8.430;2024-01-16T06:26:03;-0.40;99.90
43673;DHT22;41723;49.326;8.430;2024-01-16T06:28:28;-0.40;99.90
43673;DHT22;41723;49.326;8.430;2024-01-16T06:30:54;-0.40;99.90
43673;DHT22;41723;49.326;8.430;2024-01-16T06:33:20;-0.40;99.90
43673;DHT22;41723;49.326;8.430;2024-01-16T06:35:45;-0.40;99.90
43673;DHT22;41723;49.326;8.430;2024-01-16T06:38:11;-0.40;99.90
43673;DHT22;41723;49.326;8.430;2024-01-16T06:40:36;-0.50;99.90
43673;DHT22;41723;49.326;8.430;2024-01-16T06:43:02;-0.50;99.90
43673;DHT22;41723;49.326;8.430;2024-01-16T06:45:27;-0.50;99.90
43673;DHT22;41723;49.326;8.430;2024-01-16T06:47:53;-0.50;99.90
43673;DHT22;41723;49.326;8.430;2024-01-16T06:50:19;-0.40;99.90
43673;DHT22;41723;49.326;8.430;2024-01-16T06:52:45;-0.40;99.90
43673;DHT22;41723;49.326;8.430;2024-01-16T06:55:10;-0.40;99.90
43673;DHT22;41723;49.326;8.430;2024-01-16T06:57:36;-0.50;99.90
43673;DHT22;41723;49.326;8.430;2024-01-16T07:00:02;-0.50;99.90
43673;DHT22;41723;49.326;8.430;2024-01-16T07:02:28;-0.50;99.90
43673;DHT22;41723;49.326;8.430;2024-01-16T07:04:53;-0.40;99.90
43673;DHT22;41723;49.326;8.430;2024-01-16T07:07:19;-0.30;99.90
43673;DHT22;41723;49.326;8.430;2024-01-16T07:09:45;-0.40;99.90
43673;DHT22;41723;49.326;8.430;2024-01-16T07:12:11;-0.50;99.90
43673;DHT22;41723;49.326;8.430;2024-01-16T07:14:36;-0.40;99.90
43673;DHT22;41723;49.326;8.430;2024-01-16T07:17:03;-0.50;99.90
43673;DHT22;41723;49.326;8.430;2024-01-16T07:19:29;-0.50;99.90
43673;DHT22;41723;49.326;8.430;2024-01-16T07:21:54;-0.50;99.90
43673;DHT22;41723;49.326;8.430;2024-01-16T07:24:20;-0.50;99.90
43673;DHT22;41723;49.326;8.430;2024-01-16T07:26:45;-0.40;99.90
43673;DHT22;41723;49.326;8.430;2024-01-16T07:29:11;-0.40;99.90
43673;DHT22;41723;49.326;8.430;2024-01-16T07:31:37;-0.50;99.90
43673;DHT22;41723;49.326;8.430;2024-01-16T07:34:02;-0.50;99.90
43673;DHT22;41723;49.326;8.430;2024-01-16T07:36:28;-0.40;99.90
43673;DHT22;41723;49.326;8.430;2024-01-16T07:38:53;-0.40;99.90
43673;DHT22;41723;49.326;8.430;2024-01-16T07:41:19;-0.40;99.90
43673;DHT22;41723;49.326;8.430;2024-01-16T07:43:44;-0.40;99.90
43673;DHT22;41723;49.326;8.430;2024-01-16T07:46:10;-0.40;99.90
43673;DHT22;41723;49.326;8.430;2024-01-16T07:48:36;-0.40;99.90
43673;DHT22;41723;49.326;8.430;2024-01-16T07:51:01;-0.40;99.90
43673;DHT22;41723;49.326;8.430;2024-01-16T07:53:27;-0.40;99.90
43673;DHT22;41723;49.326;8.430;2024-01-16T07:55:53;-0.50;99.90
43673;DHT22;41723;49.326;8.430;2024-01-16T07:58:20;-0.50;99.90
43673;DHT22;41723;49.326;8.430;2024-01-16T08:00:46;-0.50;99.90
43673;DHT22;41723;49.326;8.430;2024-01-16T08:03:11;-0.50;99.90
43673;DHT22;41723;49.326;8.430;2024-01-16T08:05:37;-0.50;99.90
43673;DHT22;41723;49.326;8.430;2024-01-16T08:08:03;-0.50;99.90
43673;DHT22;41723;49.326;8.430;2024-01-16T08:10:29;-0.50;99.90
43673;DHT22;41723;49.326;8.430;2024-01-16T08:12:54;-0.50;99.90
43673;DHT22;41723;49.326;8.430;2024-01-16T08:15:21;-0.40;99.90
43673;DHT22;41723;49.326;8.430;2024-01-16T08:17:47;-0.40;99.90
43673;DHT22;41723;49.326;8.430;2024-01-16T08:20:13;-0.40;99.90
43673;DHT22;41723;49.326;8.430;2024-01-16T08:22:38;-0.30;99.90
43673;DHT22;41723;49.326;8.430;2024-01-16T08:25:04;-0.30;99.90
43673;DHT22;41723;49.326;8.430;2024-01-16T08:27:30;-0.30;99.90
43673;DHT22;41723;49.326;8.430;2024-01-16T08:29:56;-0.20;99.90
43673;DHT22;41723;49.326;8.430;2024-01-16T08:32:21;-0.10;99.90
43673;DHT22;41723;49.326;8.430;2024-01-16T08:34:47;-0.10;99.90
43673;DHT22;41723;49.326;8.430;2024-01-16T08:37:13;-0.10;99.90
43673;DHT22;41723;49.326;8.430;2024-01-16T08:39:38;-0.10;99.90
43673;DHT22;41723;49.326;8.430;2024-01-16T08:42:04;-0.10;99.90
43673;DHT22;41723;49.326;8.430;2024-01-16T08:44:29;-0.10;99.90
43673;DHT22;41723;49.326;8.430;2024-01-16T08:46:55;0.00;99.90
43673;DHT22;41723;49.326;8.430;2024-01-16T08:49:21;0.00;99.90
43673;DHT22;41723;49.326;8.430;2024-01-16T08:51:46;0.00;99.90
43673;DHT22;41723;49.326;8.430;2024-01-16T08:54:12;0.00;99.90
43673;DHT22;41723;49.326;8.430;2024-01-16T08:56:37;0.00;99.90
43673;DHT22;41723;49.326;8.430;2024-01-16T08:59:03;0.10;99.90
43673;DHT22;41723;49.326;8.430;2024-01-16T09:01:29;0.20;99.90
43673;DHT22;41723;49.326;8.430;2024-01-16T09:04:00;0.10;99.90
43673;DHT22;41723;49.326;8.430;2024-01-16T09:06:26;0.20;99.90
43673;DHT22;41723;49.326;8.430;2024-01-16T09:08:52;0.30;99.90
43673;DHT22;41723;49.326;8.430;2024-01-16T09:11:17;0.30;99.90
43673;DHT22;41723;49.326;8.430;2024-01-16T09:13:43;0.20;99.90
43673;DHT22;41723;49.326;8.430;2024-01-16T09:16:09;0.40;99.90
43673;DHT22;41723;49.326;8.430;2024-01-16T09:18:34;0.30;99.90
43673;DHT22;41723;49.326;8.430;2024-01-16T09:21:00;0.40;99.90
43673;DHT22;41723;49.326;8.430;2024-01-16T09:23:26;0.40;99.90
43673;DHT22;41723;49.326;8.430;2024-01-16T09:25:51;0.50;99.90
43673;DHT22;41723;49.326;8.430;2024-01-16T09:28:17;0.60;99.90
43673;DHT22;41723;49.326;8.430;2024-01-16T09:30:43;0.70;99.90
43673;DHT22;41723;49.326;8.430;2024-01-16T09:33:09;0.80;99.90
43673;DHT22;41723;49.326;8.430;2024-01-16T09:35:36;0.80;99.90
43673;DHT22;41723;49.326;8.430;2024-01-16T09:38:01;0.80;99.90
43673;DHT22;41723;49.326;8.430;2024-01-16T09:40:27;0.80;99.90
43673;DHT22;41723;49.326;8.430;2024-01-16T09:42:53;0.70;99.90
43673;DHT22;41723;49.326;8.430;2024-01-16T09:45:19;0.80;99.90
43673;DHT22;41723;49.326;8.430;2024-01-16T09:47:45;0.80;99.90
43673;DHT22;41723;49.326;8.430;2024-01-16T09:50:12;0.80;99.90
43673;DHT22;41723;49.326;8.430;2024-01-16T09:52:39;0.80;99.90
43673;DHT22;41723;49.326;8.430;2024-01-16T09:55:04;0.80;99.90
43673;DHT22;41723;49.326;8.430;2024-01-16T09:57:30;0.80;99.90
43673;DHT22;41723;49.326;8.430;2024-01-16T09:59:57;0.60;99.90
43673;DHT22;41723;49.326;8.430;2024-01-16T10:02:23;0.80;99.90
43673;DHT22;41723;49.326;8.430;2024-01-16T10:04:49;0.90;99.90
43673;DHT22;41723;49.326;8.430;2024-01-16T10:07:15;0.80;99.90
43673;DHT22;41723;49.326;8.430;2024-01-16T10:09:41;1.00;99.90
43673;DHT22;41723;49.326;8.430;2024-01-16T10:12:07;1.00;99.90
43673;DHT22;41723;49.326;8.430;2024-01-16T10:14:33;1.10;99.90
43673;DHT22;41723;49.326;8.430;2024-01-16T10:17:00;1.10;99.90
43673;DHT22;41723;49.326;8.430;2024-01-16T10:19:37;1.30;99.90
43673;DHT22;41723;49.326;8.430;2024-01-16T10:22:12;1.20;99.90
43673;DHT22;41723;49.326;8.430;2024-01-16T10:24:38;1.20;99.90
43673;DHT22;41723;49.326;8.430;2024-01-16T10:27:03;1.10;99.90
43673;DHT22;41723;49.326;8.430;2024-01-16T10:29:29;1.10;99.90
43673;DHT22;41723;49.326;8.430;2024-01-16T10:31:58;1.20;99.90
43673;DHT22;41723;49.326;8.430;2024-01-16T10:34:24;1.20;99.90
43673;DHT22;41723;49.326;8.430;2024-01-16T10:36:50;1.30;99.90
43673;DHT22;41723;49.326;8.430;2024-01-16T10:39:16;1.30;99.90
43673;DHT22;41723;49.326;8.430;2024-01-16T10:41:42;1.30;99.90
43673;DHT22;41723;49.326;8.430;2024-01-16T10:44:07;1.30;99.90
43673;DHT22;41723;49.326;8.430;2024-01-16T10:46:34;1.30;99.90
43673;DHT22;41723;49.326;8.430;2024-01-16T10:49:01;1.40;99.90
43673;DHT22;41723;49.326;8.430;2024-01-16T10:51:27;1.40;99.90
43673;DHT22;41723;49.326;8.430;2024-01-16T10:54:03;1.40;99.90
43673;DHT22;41723;49.326;8.430;2024-01-16T10:56:31;1.40;99.90
43673;DHT22;41723;49.326;8.430;2024-01-16T10:59:12;1.50;99.90
43673;DHT22;41723;49.326;8.430;2024-01-16T11:01:43;1.60;99.90
43673;DHT22;41723;49.326;8.430;2024-01-16T11:04:09;1.60;99.90
43673;DHT22;41723;49.326;8.430;2024-01-16T11:06:35;1.60;99.90
43673;DHT22;41723;49.326;8.430;2024-01-16T11:09:01;1.50;99.90
43673;DHT22;41723;49.326;8.430;2024-01-16T11:11:27;1.50;99.90
43673;DHT22;41723;49.326;8.430;2024-01-16T11:13:54;1.60;99.90
43673;DHT22;41723;49.326;8.430;2024-01-16T11:16:19;1.60;99.90
43673;DHT22;41723;49.326;8.430;2024-01-16T11:18:46;1.70;99.90
43673;DHT22;41723;49.326;8.430;2024-01-16T11:21:12;1.80;99.90
43673;DHT22;41723;49.326;8.430;2024-01-16T11:23:38;1.80;99.90
43673;DHT22;41723;49.326;8.430;2024-01-16T11:28:49;1.70;99.90
43673;DHT22;41723;49.326;8.430;2024-01-16T11:31:31;1.70;99.90
43673;DHT22;41723;49.326;8.430;2024-01-16T11:33:57;1.80;99.90
43673;DHT22;41723;49.326;8.430;2024-01-16T11:39:23;1.80;99.90
43673;DHT22;41723;49.326;8.430;2024-01-16T11:47:04;2.10;99.90
43673;DHT22;41723;49.326;8.430;2024-01-16T11:49:30;2.10;99.90
43673;DHT22;41723;49.326;8.430;2024-01-16T11:51:58;2.20;99.90
43673;DHT22;41723;49.326;8.430;2024-01-16T11:54:24;2.20;99.90
43673;DHT22;41723;49.326;8.430;2024-01-16T11:57:01;2.30;99.90
43673;DHT22;41723;49.326;8.430;2024-01-16T12:02:18;2.50;99.90
43673;DHT22;41723;49.326;8.430;2024-01-16T12:04:52;2.50;99.90
43673;DHT22;41723;49.326;8.430;2024-01-16T12:07:18;2.50;99.90
43673;DHT22;41723;49.326;8.430;2024-01-16T12:09:44;2.70;99.90
43673;DHT22;41723;49.326;8.430;2024-01-16T12:12:09;2.80;99.60
43673;DHT22;41723;49.326;8.430;2024-01-16T12:14:35;3.20;99.20
43673;DHT22;41723;49.326;8.430;2024-01-16T12:17:08;3.10;98.30
43673;DHT22;41723;49.326;8.430;2024-01-16T12:19:34;3.10;98.30
43673;DHT22;41723;49.326;8.430;2024-01-16T12:22:00;3.20;98.50
43673;DHT22;41723;49.326;8.430;2024-01-16T12:24:26;3.40;98.00
43673;DHT22;41723;49.326;8.430;2024-01-16T12:26:51;3.50;97.80
43673;DHT22;41723;49.326;8.430;2024-01-16T12:29:18;3.50;97.40
43673;DHT22;41723;49.326;8.430;2024-01-16T12:31:43;3.50;97.50
43673;DHT22;41723;49.326;8.430;2024-01-16T12:34:09;3.50;97.20
43673;DHT22;41723;49.326;8.430;2024-01-16T12:36:35;3.60;97.10
43673;DHT22;41723;49.326;8.430;2024-01-16T12:39:01;3.70;97.10
43673;DHT22;41723;49.326;8.430;2024-01-16T12:41:28;3.90;97.00
43673;DHT22;41723;49.326;8.430;2024-01-16T12:43:55;4.10;96.70
43673;DHT22;41723;49.326;8.430;2024-01-16T12:46:21;4.10;96.80
43673;DHT22;41723;49.326;8.430;2024-01-16T12:48:47;4.30;96.50
43673;DHT22;41723;49.326;8.430;2024-01-16T12:51:19;4.30;96.20
43673;DHT22;41723;49.326;8.430;2024-01-16T12:53:45;4.30;96.00
43673;DHT22;41723;49.326;8.430;2024-01-16T12:56:11;4.30;96.00
43673;DHT22;41723;49.326;8.430;2024-01-16T12:58:37;4.10;95.80
43673;DHT22;41723;49.326;8.430;2024-01-16T13:03:47;4.30;95.80
43673;DHT22;41723;49.326;8.430;2024-01-16T13:06:16;4.50;95.60
43673;DHT22;41723;49.326;8.430;2024-01-16T13:08:42;4.60;95.40
43673;DHT22;41723;49.326;8.430;2024-01-16T13:11:08;4.50;95.00
43673;DHT22;41723;49.326;8.430;2024-01-16T13:13:37;4.60;95.20
43673;DHT22;41723;49.326;8.430;2024-01-16T13:16:03;4.60;95.20
43673;DHT22;41723;49.326;8.430;2024-01-16T13:18:31;4.70;94.90
43673;DHT22;41723;49.326;8.430;2024-01-16T13:20:59;4.70;95.00
43673;DHT22;41723;49.326;8.430;2024-01-16T13:23:25;4.70;94.90
43673;DHT22;41723;49.326;8.430;2024-01-16T13:25:51;4.80;94.80
43673;DHT22;41723;49.326;8.430;2024-01-16T13:28:18;4.60;94.30
43673;DHT22;41723;49.326;8.430;2024-01-16T13:30:45;4.60;94.70
43673;DHT22;41723;49.326;8.430;2024-01-16T13:33:11;4.50;94.60
43673;DHT22;41723;49.326;8.430;2024-01-16T13:35:38;4.60;94.60
43673;DHT22;41723;49.326;8.430;2024-01-16T13:38:05;4.60;94.90
43673;DHT22;41723;49.326;8.430;2024-01-16T13:40:31;4.60;94.50
43673;DHT22;41723;49.326;8.430;2024-01-16T13:42:56;4.60;94.90
43673;DHT22;41723;49.326;8.430;2024-01-16T13:45:22;4.60;94.80
43673;DHT22;41723;49.326;8.430;2024-01-16T13:47:48;4.60;94.70
43673;DHT22;41723;49.326;8.430;2024-01-16T13:50:14;4.50;94.80
43673;DHT22;41723;49.326;8.430;2024-01-16T13:52:39;4.50;94.80
43673;DHT22;41723;49.326;8.430;2024-01-16T13:55:06;4.80;94.80
43673;DHT22;41723;49.326;8.430;2024-01-16T13:57:31;4.60;94.70
43673;DHT22;41723;49.326;8.430;2024-01-16T13:59:57;4.80;94.70
43673;DHT22;41723;49.326;8.430;2024-01-16T14:02:23;4.80;94.80
43673;DHT22;41723;49.326;8.430;2024-01-16T14:04:49;4.80;94.30
43673;DHT22;41723;49.326;8.430;2024-01-16T14:07:15;4.80;94.00
43673;DHT22;41723;49.326;8.430;2024-01-16T14:09:41;4.80;93.70
43673;DHT22;41723;49.326;8.430;2024-01-16T14:12:07;4.70;93.90
43673;DHT22;41723;49.326;8.430;2024-01-16T14:14:34;4.60;93.90
43673;DHT22;41723;49.326;8.430;2024-01-16T14:16:59;4.50;94.10
43673;DHT22;41723;49.326;8.430;2024-01-16T14:19:26;4.30;94.20
43673;DHT22;41723;49.326;8.430;2024-01-16T14:21:52;4.20;94.60
43673;DHT22;41723;49.326;8.430;2024-01-16T14:24:19;4.10;94.40
43673;DHT22;41723;49.326;8.430;2024-01-16T14:26:44;4.20;94.60
43673;DHT22;41723;49.326;8.430;2024-01-16T14:29:10;4.10;94.50
43673;DHT22;41723;49.326;8.430;2024-01-16T14:31:36;4.20;94.80
43673;DHT22;41723;49.326;8.430;2024-01-16T14:34:02;4.10;94.60
43673;DHT22;41723;49.326;8.430;2024-01-16T14:36:29;4.10;94.60
43673;DHT22;41723;49.326;8.430;2024-01-16T14:38:54;4.00;94.70
43673;DHT22;41723;49.326;8.430;2024-01-16T14:41:21;4.00;94.60
43673;DHT22;41723;49.326;8.430;2024-01-16T14:43:47;4.00;94.30
43673;DHT22;41723;49.326;8.430;2024-01-16T14:46:13;3.90;94.40
43673;DHT22;41723;49.326;8.430;2024-01-16T14:48:43;3.90;94.40
43673;DHT22;41723;49.326;8.430;2024-01-16T14:51:09;3.90;94.40
43673;DHT22;41723;49.326;8.430;2024-01-16T14:53:36;3.80;94.40
43673;DHT22;41723;49.326;8.430;2024-01-16T14:56:01;3.70;94.30
43673;DHT22;41723;49.326;8.430;2024-01-16T14:58:28;3.70;94.50
43673;DHT22;41723;49.326;8.430;2024-01-16T15:00:53;3.70;94.50
43673;DHT22;41723;49.326;8.430;2024-01-16T15:03:21;3.70;94.50
43673;DHT22;41723;49.326;8.430;2024-01-16T15:05:47;3.60;94.40
43673;DHT22;41723;49.326;8.430;2024-01-16T15:08:16;3.50;94.50
43673;DHT22;41723;49.326;8.430;2024-01-16T15:10:42;3.50;94.50
43673;DHT22;41723;49.326;8.430;2024-01-16T15:13:07;3.50;94.60
43673;DHT22;41723;49.326;8.430;2024-01-16T15:15:34;3.60;94.50
43673;DHT22;41723;49.326;8.430;2024-01-16T15:17:59;3.60;94.80
43673;DHT22;41723;49.326;8.430;2024-01-16T15:20:25;3.60;94.60
43673;DHT22;41723;49.326;8.430;2024-01-16T15:22:50;3.60;94.90
43673;DHT22;41723;49.326;8.430;2024-01-16T15:25:18;3.70;94.90
43673;DHT22;41723;49.326;8.430;2024-01-16T15:27:47;3.60;94.40
43673;DHT22;41723;49.326;8.430;2024-01-16T15:30:14;3.60;94.70
43673;DHT22;41723;49.326;8.430;2024-01-16T15:32:39;3.60;94.70
43673;DHT22;41723;49.326;8.430;2024-01-16T15:35:05;3.60;94.70
43673;DHT22;41723;49.326;8.430;2024-01-16T15:37:34;3.50;94.70
43673;DHT22;41723;49.326;8.430;2024-01-16T15:40:00;3.60;95.00
43673;DHT22;41723;49.326;8.430;2024-01-16T15:42:26;3.60;95.00
43673;DHT22;41723;49.326;8.430;2024-01-16T15:44:52;3.60;95.20
43673;DHT22;41723;49.326;8.430;2024-01-16T15:47:19;3.60;95.50
43673;DHT22;41723;49.326;8.430;2024-01-16T15:49:45;3.60;95.40
43673;DHT22;41723;49.326;8.430;2024-01-16T15:52:12;3.70;95.40
43673;DHT22;41723;49.326;8.430;2024-01-16T15:54:41;3.60;95.50